createdAt,value
2023-04-14T00:00:06.972Z,48.53
2023-04-14T00:03:27.205Z,46.55
2023-04-14T00:06:39.662Z,43.50
2023-04-14T00:09:51.938Z,44.83
2023-04-14T00:13:04.634Z,46.30
2023-04-14T00:16:17.814Z,45.75
2023-04-14T00:19:29.829Z,41.13
2023-04-14T00:22:41.903Z,40.98
2023-04-14T00:25:55.564Z,42.20
2023-04-14T00:29:07.628Z,44.58
2023-04-14T00:32:19.849Z,44.55
2023-04-14T00:35:32.290Z,41.35
2023-04-14T00:38:44.592Z,42.50
2023-04-14T00:41:56.910Z,48.15
2023-04-14T00:45:09.487Z,41.30
2023-04-14T00:48:23.480Z,43.25
2023-04-14T00:51:35.947Z,42.95
2023-04-14T00:54:48.456Z,40.68
2023-04-14T00:58:00.852Z,41.90
2023-04-14T01:01:13.195Z,43.38
2023-04-14T01:04:33.661Z,40.55
2023-04-14T01:07:41.528Z,47.65
2023-04-14T01:11:03.518Z,41.30
2023-04-14T01:14:21.876Z,41.10
2023-04-14T01:17:39.523Z,42.20
2023-04-14T01:20:56.424Z,43.58
2023-04-14T01:24:45.574Z,41.78
2023-04-14T01:28:05.146Z,39.00
2023-04-14T01:31:32.976Z,37.80
2023-04-14T01:34:50.759Z,39.58
2023-04-14T01:38:08.433Z,40.90
2023-04-14T01:41:22.045Z,41.80
2023-04-14T01:44:37.131Z,43.43
2023-04-14T01:47:51.392Z,41.48
2023-04-14T01:51:04.838Z,45.03
2023-04-14T01:54:20.740Z,40.75
2023-04-14T01:57:35.028Z,39.95
2023-04-14T02:00:49.102Z,43.90
2023-04-14T02:04:01.723Z,44.58
2023-04-14T02:07:17.042Z,41.90
2023-04-14T02:10:30.782Z,37.43
2023-04-14T02:13:45.320Z,37.73
2023-04-14T02:16:59.698Z,36.23
2023-04-14T02:20:17.447Z,40.68
2023-04-14T02:23:36.964Z,42.98
2023-04-14T02:26:56.363Z,45.78
2023-04-14T02:30:15.613Z,41.25
2023-04-14T02:33:33.086Z,40.93
2023-04-14T02:36:49.573Z,41.98
2023-04-14T02:40:10.007Z,36.68
2023-04-14T02:43:28.429Z,44.15
2023-04-14T02:46:45.495Z,36.13
2023-04-14T02:50:00.273Z,41.50
2023-04-14T02:53:13.932Z,41.53
2023-04-14T02:56:27.347Z,40.88
2023-04-14T02:59:42.277Z,37.28
2023-04-14T03:02:58.248Z,40.88
2023-04-14T03:06:12.443Z,40.95
2023-04-14T03:09:26.684Z,37.63
2023-04-14T03:12:41.796Z,36.13
2023-04-14T03:15:57.990Z,41.80
2023-04-14T03:19:12.844Z,41.08
2023-04-14T03:22:28.513Z,40.17
2023-04-14T03:25:44.204Z,40.30
2023-04-14T03:29:00.015Z,43.73
2023-04-14T03:32:14.437Z,40.03
2023-04-14T03:35:27.888Z,36.60
2023-04-14T03:38:42.938Z,40.90
2023-04-14T03:41:57.394Z,41.78
2023-04-14T03:45:11.773Z,39.63
2023-04-14T03:48:29.864Z,37.48
2023-04-14T03:51:44.871Z,38.05
2023-04-14T03:55:02.746Z,41.03
2023-04-14T03:58:17.687Z,37.90
2023-04-14T04:01:33.172Z,35.80
2023-04-14T04:04:46.871Z,40.53
2023-04-14T04:08:02.418Z,41.05
2023-04-14T04:11:18.245Z,38.50
2023-04-14T04:14:32.287Z,37.98
2023-04-14T04:17:46.068Z,29.88
2023-04-14T04:21:01.446Z,35.35
2023-04-14T04:24:16.504Z,37.65
2023-04-14T04:27:29.662Z,36.35
2023-04-14T04:30:46.552Z,38.18
2023-04-14T04:33:59.401Z,36.05
2023-04-14T04:37:13.422Z,36.40
2023-04-14T04:40:26.332Z,36.10
2023-04-14T04:43:38.850Z,36.75
2023-04-14T04:46:59.079Z,30.93
2023-04-14T04:50:14.208Z,47.45
2023-04-14T04:53:26.871Z,42.80
2023-04-14T04:56:39.342Z,49.50
2023-04-14T04:59:51.460Z,38.50
2023-04-14T05:03:03.786Z,35.65
2023-04-14T05:06:16.850Z,32.58
2023-04-14T05:09:28.929Z,37.53
2023-04-14T05:12:40.942Z,34.25
2023-04-14T05:15:53.550Z,84.95
2023-04-14T05:19:06.273Z,70.78
2023-04-14T05:22:18.363Z,42.73
2023-04-14T05:25:30.468Z,37.95
2023-04-14T05:28:42.477Z,35.70
2023-04-14T05:31:54.422Z,51.40
2023-04-14T05:35:07.037Z,42.48
2023-04-14T05:38:19.272Z,49.90
2023-04-14T05:45:17.286Z,33.95
2023-04-14T05:48:31.096Z,54.60
2023-04-14T05:51:56.648Z,49.90
2023-04-14T05:55:22.689Z,37.23
2023-04-14T06:02:35.016Z,36.38
2023-04-14T06:09:31.999Z,40.95
2023-04-14T06:12:44.801Z,36.10
2023-04-14T06:16:08.962Z,36.03
2023-04-14T06:19:22.922Z,40.80
2023-04-14T06:22:53.790Z,37.40
2023-04-14T06:29:47.811Z,36.88
2023-04-14T06:33:03.858Z,51.20
2023-04-14T06:36:26.568Z,45.55
2023-04-14T06:39:45.232Z,61.18
2023-04-14T06:42:58.459Z,49.15
2023-04-14T06:46:10.817Z,29.83
2023-04-14T06:49:24.454Z,32.35
2023-04-14T06:52:36.516Z,37.53
2023-04-14T06:55:49.797Z,34.63
2023-04-14T06:59:01.799Z,36.35
2023-04-14T07:02:13.953Z,48.13
2023-04-14T07:05:26.666Z,26.78
2023-04-14T07:08:40.837Z,29.83
2023-04-14T07:11:53.853Z,26.93
2023-04-14T07:15:06.010Z,24.08
2023-04-14T07:18:18.023Z,29.73
2023-04-14T07:21:30.572Z,34.30
2023-04-14T07:24:42.858Z,26.45
2023-04-14T07:28:03.313Z,33.40
2023-04-14T07:31:15.142Z,28.60
2023-04-14T07:34:28.118Z,26.35
2023-04-14T07:37:40.530Z,29.38
2023-04-14T07:40:52.579Z,53.43
2023-04-14T07:44:04.576Z,26.38
2023-04-14T07:47:16.653Z,23.85
2023-04-14T07:50:28.868Z,21.38
2023-04-14T07:53:43.130Z,27.05
2023-04-14T07:56:56.327Z,26.10
2023-04-14T08:00:09.943Z,24.25
2023-04-14T08:03:25.068Z,23.02
2023-04-14T08:06:37.446Z,21.75
2023-04-14T08:09:49.432Z,23.15
2023-04-14T08:13:03.508Z,35.58
2023-04-14T08:16:15.788Z,22.58
2023-04-14T08:19:27.937Z,17.20
2023-04-14T08:22:43.385Z,15.75
2023-04-14T08:25:55.274Z,14.18
2023-04-14T08:29:07.467Z,15.30
2023-04-14T08:32:19.582Z,10.80
2023-04-14T08:35:37.437Z,14.23
2023-04-14T08:38:46.186Z,12.55
2023-04-14T08:41:59.640Z,16.23
2023-04-14T08:45:14.005Z,20.73
2023-04-14T08:48:28.512Z,22.83
2023-04-14T08:51:45.749Z,15.48
2023-04-14T08:54:58.577Z,12.28
2023-04-14T08:58:13.477Z,14.38
2023-04-14T09:01:26.549Z,13.78
2023-04-14T09:04:40.120Z,11.93
2023-04-14T09:07:52.587Z,9.55
2023-04-14T09:11:04.817Z,6.33
2023-04-14T09:14:17.309Z,6.03
2023-04-14T09:17:31.718Z,6.03
2023-04-14T09:20:44.138Z,5.48
2023-04-14T09:24:01.691Z,7.10
2023-04-14T09:27:26.846Z,23.08
2023-04-14T09:31:11.899Z,6.03
2023-04-14T09:35:01.375Z,6.28
2023-04-14T09:38:27.791Z,6.03
2023-04-14T09:41:58.436Z,6.50
2023-04-14T09:45:12.639Z,7.93
2023-04-14T09:48:35.622Z,6.63
2023-04-14T09:52:02.902Z,8.15
2023-04-14T09:55:21.465Z,6.13
2023-04-14T09:58:44.164Z,5.75
2023-04-14T10:01:58.401Z,4.90
2023-04-14T10:05:17.690Z,7.58
2023-04-14T10:08:46.568Z,5.40
2023-04-14T10:12:21.877Z,5.43
2023-04-14T10:15:35.159Z,6.63
2023-04-14T10:18:47.293Z,5.65
2023-04-14T10:22:02.080Z,8.95
2023-04-14T10:25:17.743Z,4.58
2023-04-14T10:28:34.226Z,23.90
2023-04-14T10:31:50.086Z,6.50
2023-04-14T10:35:10.674Z,9.05
2023-04-14T10:38:23.166Z,5.95
2023-04-14T10:41:51.152Z,7.73
2023-04-14T10:45:16.167Z,3.63
2023-04-14T10:48:30.235Z,4.53
2023-04-14T10:51:44.323Z,4.53
2023-04-14T10:55:05.079Z,5.20
2023-04-14T10:58:24.356Z,9.10
2023-04-14T11:01:41.148Z,5.30
2023-04-14T11:05:11.953Z,4.50
2023-04-14T11:08:29.079Z,5.53
2023-04-14T11:14:53.331Z,17.58
2023-04-14T11:18:18.597Z,5.20
2023-04-14T11:21:43.728Z,5.00
2023-04-14T11:24:56.183Z,4.18
2023-04-14T11:28:09.183Z,4.73
2023-04-14T11:31:23.398Z,4.08
2023-04-14T11:34:35.745Z,5.03
2023-04-14T11:37:49.043Z,6.03
2023-04-14T11:41:01.784Z,3.68
2023-04-14T11:44:14.629Z,30.20
2023-04-14T11:47:30.366Z,5.25
2023-04-14T11:50:44.926Z,6.65
2023-04-14T11:53:57.442Z,6.08
2023-04-14T11:57:15.033Z,5.50
2023-04-14T12:00:28.707Z,7.40
2023-04-14T12:03:42.557Z,6.63
2023-04-14T12:06:54.948Z,6.88
2023-04-14T12:10:07.921Z,3.88
2023-04-14T12:13:20.267Z,4.48
2023-04-14T12:16:32.724Z,5.48
2023-04-14T12:19:45.511Z,5.75
2023-04-14T12:23:00.685Z,6.23
2023-04-14T12:26:17.530Z,5.30
2023-04-14T12:32:45.725Z,5.90
2023-04-14T12:35:57.988Z,4.80
2023-04-14T12:39:14.569Z,7.33
2023-04-14T12:42:27.301Z,5.28
2023-04-14T12:45:51.324Z,4.75
2023-04-14T12:49:03.600Z,8.10
2023-04-14T12:52:16.313Z,8.50
2023-04-14T12:55:30.324Z,6.35
2023-04-14T12:58:43.129Z,7.23
2023-04-14T13:01:56.519Z,4.68
2023-04-14T13:05:09.440Z,10.25
2023-04-14T13:08:21.712Z,9.60
2023-04-14T13:11:34.269Z,8.90
2023-04-14T13:14:46.424Z,8.75
2023-04-14T13:17:58.597Z,7.53
2023-04-14T13:21:11.413Z,10.03
2023-04-14T13:24:23.486Z,7.40
2023-04-14T13:27:35.626Z,7.65
2023-04-14T13:30:48.859Z,8.85
2023-04-14T13:34:00.817Z,6.00
2023-04-14T13:37:12.765Z,5.28
2023-04-14T13:40:24.896Z,11.50
2023-04-14T13:43:37.692Z,6.03
2023-04-14T13:46:50.454Z,7.50
2023-04-14T13:50:02.631Z,10.68
2023-04-14T13:53:14.726Z,9.85
2023-04-14T13:56:27.521Z,6.88
2023-04-14T13:59:39.664Z,6.50
2023-04-14T14:02:52.337Z,5.53
2023-04-14T14:06:04.697Z,5.53
2023-04-14T14:09:16.823Z,7.20
2023-04-14T14:12:28.943Z,7.10
2023-04-14T14:15:41.456Z,9.13
2023-04-14T14:18:53.695Z,12.18
2023-04-14T14:22:07.671Z,17.33
2023-04-14T14:25:21.210Z,7.60
2023-04-14T14:28:33.899Z,3.85
2023-04-14T14:31:45.945Z,7.25
2023-04-14T14:34:58.133Z,8.80
2023-04-14T14:38:10.267Z,5.95
2023-04-14T14:41:23.449Z,11.60
2023-04-14T14:44:35.594Z,11.30
2023-04-14T14:47:47.793Z,5.78
2023-04-14T14:50:59.954Z,5.33
2023-04-14T14:54:12.245Z,11.25
2023-04-14T14:57:24.785Z,10.48
2023-04-14T15:00:37.001Z,8.03
2023-04-14T15:03:49.822Z,10.55
2023-04-14T15:07:02.496Z,8.35
2023-04-14T15:10:16.358Z,6.63
2023-04-14T15:13:29.740Z,7.90
2023-04-14T15:16:41.978Z,8.60
2023-04-14T15:19:54.460Z,5.63
2023-04-14T15:23:07.311Z,14.23
2023-04-14T15:26:19.798Z,11.40
2023-04-14T15:29:31.868Z,13.48
2023-04-14T15:32:44.295Z,10.75
2023-04-14T15:35:56.562Z,6.98
2023-04-14T15:39:08.686Z,7.38
2023-04-14T15:42:20.986Z,7.53
2023-04-14T15:45:33.088Z,8.95
2023-04-14T15:48:45.782Z,7.33
2023-04-14T15:51:57.740Z,14.68
2023-04-14T15:55:12.350Z,10.98
2023-04-14T15:58:24.371Z,9.30
2023-04-14T16:01:36.662Z,7.30
2023-04-14T16:04:48.850Z,13.20
2023-04-14T16:08:01.178Z,31.38
2023-04-14T16:11:13.440Z,29.80
2023-04-14T16:14:25.501Z,10.35
2023-04-14T16:17:37.589Z,11.83
2023-04-14T16:20:50.395Z,12.80
2023-04-14T16:24:03.133Z,11.95
2023-04-14T16:27:15.464Z,8.60
2023-04-14T16:30:27.647Z,12.00
2023-04-14T16:33:39.785Z,11.43
2023-04-14T16:36:52.389Z,10.33
2023-04-14T16:40:06.640Z,11.65
2023-04-14T16:43:18.838Z,9.98
2023-04-14T16:46:32.495Z,13.53
2023-04-14T16:49:44.520Z,9.33
2023-04-14T16:52:56.772Z,19.55
2023-04-14T16:56:13.430Z,10.55
2023-04-14T16:59:25.569Z,17.68
2023-04-14T17:02:38.838Z,12.23
2023-04-14T17:05:51.775Z,13.80
2023-04-14T17:09:04.699Z,13.00
2023-04-14T17:12:17.939Z,8.90
2023-04-14T17:15:30.042Z,13.83
2023-04-14T17:18:43.084Z,10.78
2023-04-14T17:21:55.223Z,17.40
2023-04-14T17:25:07.919Z,15.15
2023-04-14T17:28:22.120Z,12.45
2023-04-14T17:31:35.196Z,210.85
2023-04-14T17:34:47.684Z,20.20
2023-04-14T17:38:03.917Z,17.35
2023-04-14T17:41:18.994Z,19.00
2023-04-14T17:44:37.007Z,11.38
2023-04-14T17:47:49.482Z,21.63
2023-04-14T17:51:02.583Z,17.48
2023-04-14T17:54:15.036Z,13.63
2023-04-14T17:57:27.988Z,14.70
2023-04-14T18:00:40.511Z,19.93
2023-04-14T18:03:53.450Z,16.25
2023-04-14T18:07:06.750Z,13.95
2023-04-14T18:10:19.726Z,11.58
2023-04-14T18:13:32.053Z,10.30
2023-04-14T18:16:44.966Z,9.30
2023-04-14T18:19:59.682Z,8.58
2023-04-14T18:23:12.933Z,8.08
2023-04-14T18:26:26.841Z,6.25
2023-04-14T18:29:39.528Z,7.98
2023-04-14T18:32:52.602Z,13.80
2023-04-14T18:36:06.743Z,7.10
2023-04-14T18:39:19.439Z,8.65
2023-04-14T18:42:33.067Z,8.50
2023-04-14T18:45:47.405Z,5.25
2023-04-14T18:49:00.111Z,7.08
2023-04-14T18:52:12.613Z,4.83
2023-04-14T18:55:39.558Z,5.25
2023-04-14T18:58:42.298Z,6.65
2023-04-14T19:01:54.421Z,9.00
2023-04-14T19:05:06.781Z,4.73
2023-04-14T19:08:19.013Z,4.95
2023-04-14T19:11:32.590Z,4.90
2023-04-14T19:14:45.054Z,4.15
2023-04-14T19:17:57.193Z,6.65
2023-04-14T19:21:09.973Z,3.80
2023-04-14T19:24:22.234Z,6.25
2023-04-14T19:27:36.247Z,5.93
2023-04-14T19:30:49.236Z,7.38
2023-04-14T19:34:01.442Z,9.73
2023-04-14T19:37:13.820Z,6.35
2023-04-14T19:40:27.006Z,6.05
2023-04-14T19:43:39.315Z,5.30
2023-04-14T19:46:52.236Z,15.25
2023-04-14T19:50:04.824Z,7.00
2023-04-14T19:53:17.286Z,6.45
2023-04-14T19:56:30.186Z,9.78
2023-04-14T19:59:42.824Z,8.38
2023-04-14T20:02:55.429Z,6.55
2023-04-14T20:06:07.590Z,8.03
2023-04-14T20:09:20.185Z,7.98
2023-04-14T20:12:33.290Z,6.83
2023-04-14T20:15:46.684Z,7.18
2023-04-14T20:18:59.338Z,5.48
2023-04-14T20:22:11.987Z,5.18
2023-04-14T20:25:24.907Z,4.75
2023-04-14T20:28:37.337Z,7.28
2023-04-14T20:31:49.487Z,6.00
2023-04-14T20:35:02.158Z,8.38
2023-04-14T20:38:15.417Z,5.20
2023-04-14T20:41:28.100Z,5.15
2023-04-14T20:44:40.314Z,5.75
2023-04-14T20:47:52.564Z,5.33
2023-04-14T20:51:05.045Z,5.53
2023-04-14T20:54:17.343Z,5.53
2023-04-14T20:57:29.778Z,4.48
2023-04-14T21:00:41.906Z,6.68
2023-04-14T21:03:54.878Z,4.38
2023-04-14T21:07:07.181Z,6.18
2023-04-14T21:10:20.155Z,6.18
2023-04-14T21:15:28.545Z,7.63
2023-04-14T21:16:46.875Z,5.55
2023-04-14T21:19:59.531Z,6.95
2023-04-14T21:23:11.672Z,5.18
2023-04-14T21:26:24.221Z,6.90
2023-04-14T21:29:36.586Z,5.20
2023-04-14T21:32:49.230Z,6.70
2023-04-14T21:36:02.677Z,5.93
2023-04-14T21:39:14.885Z,6.60
2023-04-14T21:42:27.823Z,4.90
2023-04-14T21:45:40.354Z,5.05
2023-04-14T21:48:52.584Z,5.23
2023-04-14T21:52:04.531Z,5.70
2023-04-14T21:55:17.145Z,9.68
2023-04-14T21:58:29.325Z,7.08
2023-04-14T22:01:43.021Z,5.95
2023-04-14T22:04:55.266Z,6.05
2023-04-14T22:08:07.526Z,6.63
2023-04-14T22:11:19.672Z,5.73
2023-04-14T22:14:33.154Z,7.70
2023-04-14T22:17:46.685Z,4.83
2023-04-14T22:20:58.887Z,4.48
2023-04-14T22:24:12.687Z,6.98
2023-04-14T22:27:24.819Z,6.90
2023-04-14T22:30:37.087Z,5.20
2023-04-14T22:33:49.689Z,5.40
2023-04-14T22:37:03.098Z,5.00
2023-04-14T22:40:17.870Z,5.20
2023-04-14T22:43:30.205Z,2.78
2023-04-14T22:46:42.528Z,3.45
2023-04-14T22:49:55.114Z,2.63
2023-04-14T22:53:07.816Z,3.48
2023-04-14T22:56:19.773Z,3.48
2023-04-14T22:59:32.311Z,3.00
2023-04-14T23:02:45.657Z,2.33
2023-04-14T23:05:58.410Z,1.20
2023-04-14T23:09:11.046Z,3.23
2023-04-14T23:12:23.061Z,1.18
2023-04-14T23:15:36.065Z,1.90
2023-04-14T23:18:50.279Z,1.40
2023-04-14T23:22:02.546Z,1.48
2023-04-14T23:25:15.978Z,3.98
2023-04-14T23:28:29.664Z,1.10
2023-04-14T23:31:42.226Z,2.03
2023-04-14T23:34:54.585Z,3.55
2023-04-14T23:38:06.792Z,1.33
2023-04-14T23:41:19.415Z,1.00
2023-04-14T23:44:32.031Z,1.38
2023-04-14T23:47:44.504Z,3.20
2023-04-14T23:50:58.903Z,1.05
2023-04-14T23:54:11.948Z,0.93
2023-04-14T23:57:24.795Z,1.60
